sensor_id;sensor_type;location;lat;lon;timestamp;P1;durP1;ratioP1;P2;durP2;ratioP2
6679;SDS011;3376;42.664;23.346;2024-01-15T00:01:50;48.17;;;29.52;;
6679;SDS011;3376;42.664;23.346;2024-01-15T00:04:17;49.10;;;30.30;;
6679;SDS011;3376;42.664;23.346;2024-01-15T00:06:44;47.88;;;31.45;;
6679;SDS011;3376;42.664;23.346;2024-01-15T00:09:11;49.35;;;30.88;;
6679;SDS011;3376;42.664;23.346;2024-01-15T00:11:38;46.47;;;30.83;;
6679;SDS011;3376;42.664;23.346;2024-01-15T00:14:05;47.05;;;27.90;;
6679;SDS011;3376;42.664;23.346;2024-01-15T00:16:33;45.92;;;29.48;;
6679;SDS011;3376;42.664;23.346;2024-01-15T00:19:00;46.58;;;29.45;;
6679;SDS011;3376;42.664;23.346;2024-01-15T00:21:27;44.38;;;29.83;;
6679;SDS011;3376;42.664;23.346;2024-01-15T00:23:54;50.38;;;34.00;;
6679;SDS011;3376;42.664;23.346;2024-01-15T00:26:21;47.88;;;31.45;;
6679;SDS011;3376;42.664;23.346;2024-01-15T00:28:48;49.30;;;30.33;;
6679;SDS011;3376;42.664;23.346;2024-01-15T00:31:16;49.83;;;30.90;;
6679;SDS011;3376;42.664;23.346;2024-01-15T00:33:44;40.38;;;27.65;;
6679;SDS011;3376;42.664;23.346;2024-01-15T00:36:12;44.05;;;28.95;;
6679;SDS011;3376;42.664;23.346;2024-01-15T00:38:39;47.63;;;30.85;;
6679;SDS011;3376;42.664;23.346;2024-01-15T00:41:06;45.20;;;30.35;;
6679;SDS011;3376;42.664;23.346;2024-01-15T00:43:33;42.80;;;28.38;;
6679;SDS011;3376;42.664;23.346;2024-01-15T00:46:01;58.88;;;32.35;;
6679;SDS011;3376;42.664;23.346;2024-01-15T00:48:28;47.08;;;31.13;;
6679;SDS011;3376;42.664;23.346;2024-01-15T00:50:56;51.22;;;31.58;;
6679;SDS011;3376;42.664;23.346;2024-01-15T00:53:23;49.03;;;32.25;;
6679;SDS011;3376;42.664;23.346;2024-01-15T00:55:51;51.72;;;31.73;;
6679;SDS011;3376;42.664;23.346;2024-01-15T00:58:18;44.95;;;29.33;;
6679;SDS011;3376;42.664;23.346;2024-01-15T01:00:45;51.00;;;32.38;;
6679;SDS011;3376;42.664;23.346;2024-01-15T01:03:12;46.80;;;30.38;;
6679;SDS011;3376;42.664;23.346;2024-01-15T01:05:39;48.30;;;31.23;;
6679;SDS011;3376;42.664;23.346;2024-01-15T01:08:08;48.75;;;30.83;;
6679;SDS011;3376;42.664;23.346;2024-01-15T01:10:35;52.47;;;32.90;;
6679;SDS011;3376;42.664;23.346;2024-01-15T01:13:02;51.88;;;32.38;;
6679;SDS011;3376;42.664;23.346;2024-01-15T01:15:29;50.45;;;32.88;;
6679;SDS011;3376;42.664;23.346;2024-01-15T01:17:56;51.53;;;31.17;;
6679;SDS011;3376;42.664;23.346;2024-01-15T01:20:23;45.25;;;31.95;;
6679;SDS011;3376;42.664;23.346;2024-01-15T01:22:50;50.75;;;34.53;;
6679;SDS011;3376;42.664;23.346;2024-01-15T01:25:18;55.10;;;35.92;;
6679;SDS011;3376;42.664;23.346;2024-01-15T01:27:45;63.88;;;37.40;;
6679;SDS011;3376;42.664;23.346;2024-01-15T01:30:12;53.88;;;35.97;;
6679;SDS011;3376;42.664;23.346;2024-01-15T01:32:39;62.13;;;36.17;;
6679;SDS011;3376;42.664;23.346;2024-01-15T01:35:06;59.05;;;36.50;;
6679;SDS011;3376;42.664;23.346;2024-01-15T01:37:33;54.25;;;34.13;;
6679;SDS011;3376;42.664;23.346;2024-01-15T01:40:00;51.80;;;34.92;;
6679;SDS011;3376;42.664;23.346;2024-01-15T01:42:29;56.40;;;34.47;;
6679;SDS011;3376;42.664;23.346;2024-01-15T01:44:56;50.35;;;32.75;;
6679;SDS011;3376;42.664;23.346;2024-01-15T01:47:23;52.85;;;32.70;;
6679;SDS011;3376;42.664;23.346;2024-01-15T01:49:51;53.72;;;33.70;;
6679;SDS011;3376;42.664;23.346;2024-01-15T01:52:19;48.15;;;32.63;;
6679;SDS011;3376;42.664;23.346;2024-01-15T01:54:46;53.40;;;32.33;;
6679;SDS011;3376;42.664;23.346;2024-01-15T01:57:13;48.42;;;32.22;;
6679;SDS011;3376;42.664;23.346;2024-01-15T01:59:43;45.35;;;29.13;;
6679;SDS011;3376;42.664;23.346;2024-01-15T02:02:12;49.90;;;28.80;;
6679;SDS011;3376;42.664;23.346;2024-01-15T02:04:40;44.97;;;28.75;;
6679;SDS011;3376;42.664;23.346;2024-01-15T02:07:07;44.80;;;30.30;;
6679;SDS011;3376;42.664;23.346;2024-01-15T02:09:35;44.30;;;28.13;;
6679;SDS011;3376;42.664;23.346;2024-01-15T02:12:02;50.47;;;30.92;;
6679;SDS011;3376;42.664;23.346;2024-01-15T02:14:29;45.28;;;30.00;;
6679;SDS011;3376;42.664;23.346;2024-01-15T02:16:57;36.03;;;26.42;;
6679;SDS011;3376;42.664;23.346;2024-01-15T02:19:24;39.17;;;27.30;;
6679;SDS011;3376;42.664;23.346;2024-01-15T02:21:51;45.05;;;26.88;;
6679;SDS011;3376;42.664;23.346;2024-01-15T02:24:20;42.42;;;30.27;;
6679;SDS011;3376;42.664;23.346;2024-01-15T02:26:47;40.78;;;26.65;;
6679;SDS011;3376;42.664;23.346;2024-01-15T02:29:14;43.03;;;27.50;;
6679;SDS011;3376;42.664;23.346;2024-01-15T02:31:41;36.05;;;25.48;;
6679;SDS011;3376;42.664;23.346;2024-01-15T02:34:08;32.42;;;24.15;;
6679;SDS011;3376;42.664;23.346;2024-01-15T02:36:35;33.80;;;25.02;;
6679;SDS011;3376;42.664;23.346;2024-01-15T02:39:02;36.25;;;25.90;;
6679;SDS011;3376;42.664;23.346;2024-01-15T02:41:31;41.72;;;25.42;;
6679;SDS011;3376;42.664;23.346;2024-01-15T02:43:57;37.88;;;27.77;;
6679;SDS011;3376;42.664;23.346;2024-01-15T02:46:24;35.53;;;24.52;;
6679;SDS011;3376;42.664;23.346;2024-01-15T02:48:51;46.25;;;29.77;;
6679;SDS011;3376;42.664;23.346;2024-01-15T02:51:18;41.25;;;27.33;;
6679;SDS011;3376;42.664;23.346;2024-01-15T02:53:46;41.88;;;27.60;;
6679;SDS011;3376;42.664;23.346;2024-01-15T02:56:13;43.50;;;29.08;;
6679;SDS011;3376;42.664;23.346;2024-01-15T02:58:41;39.45;;;28.45;;
6679;SDS011;3376;42.664;23.346;2024-01-15T03:01:08;42.55;;;30.17;;
6679;SDS011;3376;42.664;23.346;2024-01-15T03:03:35;46.72;;;29.02;;
6679;SDS011;3376;42.664;23.346;2024-01-15T03:06:02;39.50;;;28.30;;
6679;SDS011;3376;42.664;23.346;2024-01-15T03:08:29;43.95;;;29.92;;
6679;SDS011;3376;42.664;23.346;2024-01-15T03:10:56;39.05;;;27.50;;
6679;SDS011;3376;42.664;23.346;2024-01-15T03:13:24;49.58;;;29.38;;
6679;SDS011;3376;42.664;23.346;2024-01-15T03:15:52;44.92;;;28.35;;
6679;SDS011;3376;42.664;23.346;2024-01-15T03:18:19;40.42;;;28.23;;
6679;SDS011;3376;42.664;23.346;2024-01-15T03:20:46;42.40;;;28.77;;
6679;SDS011;3376;42.664;23.346;2024-01-15T03:23:13;41.17;;;28.23;;
6679;SDS011;3376;42.664;23.346;2024-01-15T03:25:40;41.13;;;28.98;;
6679;SDS011;3376;42.664;23.346;2024-01-15T03:28:07;47.80;;;29.90;;
6679;SDS011;3376;42.664;23.346;2024-01-15T03:30:34;42.30;;;29.27;;
6679;SDS011;3376;42.664;23.346;2024-01-15T03:33:02;43.20;;;28.23;;
6679;SDS011;3376;42.664;23.346;2024-01-15T03:35:29;44.17;;;30.15;;
6679;SDS011;3376;42.664;23.346;2024-01-15T03:37:56;47.72;;;32.05;;
6679;SDS011;3376;42.664;23.346;2024-01-15T03:40:23;45.20;;;31.60;;
6679;SDS011;3376;42.664;23.346;2024-01-15T03:42:50;46.17;;;31.02;;
6679;SDS011;3376;42.664;23.346;2024-01-15T03:45:17;46.80;;;31.48;;
6679;SDS011;3376;42.664;23.346;2024-01-15T03:47:44;49.70;;;30.42;;
6679;SDS011;3376;42.664;23.346;2024-01-15T03:50:13;51.65;;;30.33;;
6679;SDS011;3376;42.664;23.346;2024-01-15T03:52:40;49.45;;;32.83;;
6679;SDS011;3376;42.664;23.346;2024-01-15T03:55:07;46.88;;;30.83;;
6679;SDS011;3376;42.664;23.346;2024-01-15T03:57:34;49.67;;;31.42;;
6679;SDS011;3376;42.664;23.346;2024-01-15T04:00:02;43.80;;;30.40;;
6679;SDS011;3376;42.664;23.346;2024-01-15T04:02:29;46.45;;;30.65;;
6679;SDS011;3376;42.664;23.346;2024-01-15T04:04:56;48.85;;;30.50;;
6679;SDS011;3376;42.664;23.346;2024-01-15T04:07:25;43.78;;;29.95;;
6679;SDS011;3376;42.664;23.346;2024-01-15T04:09:52;46.05;;;29.00;;
6679;SDS011;3376;42.664;23.346;2024-01-15T04:12:19;43.97;;;29.45;;
6679;SDS011;3376;42.664;23.346;2024-01-15T04:14:45;43.30;;;29.52;;
6679;SDS011;3376;42.664;23.346;2024-01-15T04:17:12;44.25;;;28.73;;
6679;SDS011;3376;42.664;23.346;2024-01-15T04:19:39;38.15;;;28.33;;
6679;SDS011;3376;42.664;23.346;2024-01-15T04:22:09;44.22;;;30.38;;
6679;SDS011;3376;42.664;23.346;2024-01-15T04:24:37;43.25;;;28.33;;
6679;SDS011;3376;42.664;23.346;2024-01-15T04:27:04;40.88;;;26.83;;
6679;SDS011;3376;42.664;23.346;2024-01-15T04:29:32;42.58;;;28.20;;
6679;SDS011;3376;42.664;23.346;2024-01-15T04:31:59;46.33;;;28.35;;
6679;SDS011;3376;42.664;23.346;2024-01-15T04:34:26;51.42;;;31.52;;
6679;SDS011;3376;42.664;23.346;2024-01-15T04:36:52;52.67;;;30.00;;
6679;SDS011;3376;42.664;23.346;2024-01-15T04:39:19;43.65;;;29.45;;
6679;SDS011;3376;42.664;23.346;2024-01-15T04:41:48;40.08;;;28.50;;
6679;SDS011;3376;42.664;23.346;2024-01-15T04:44:15;48.80;;;30.60;;
6679;SDS011;3376;42.664;23.346;2024-01-15T04:46:42;56.30;;;33.30;;
6679;SDS011;3376;42.664;23.346;2024-01-15T04:49:10;49.10;;;32.28;;
6679;SDS011;3376;42.664;23.346;2024-01-15T04:51:37;44.25;;;29.80;;
6679;SDS011;3376;42.664;23.346;2024-01-15T04:54:04;49.22;;;32.83;;
6679;SDS011;3376;42.664;23.346;2024-01-15T04:56:31;48.25;;;31.02;;
6679;SDS011;3376;42.664;23.346;2024-01-15T04:58:59;42.70;;;31.08;;
6679;SDS011;3376;42.664;23.346;2024-01-15T05:01:31;40.70;;;28.38;;
6679;SDS011;3376;42.664;23.346;2024-01-15T05:03:58;50.67;;;31.88;;
6679;SDS011;3376;42.664;23.346;2024-01-15T05:06:43;50.65;;;31.73;;
6679;SDS011;3376;42.664;23.346;2024-01-15T05:09:10;49.92;;;31.45;;
6679;SDS011;3376;42.664;23.346;2024-01-15T05:11:38;45.28;;;30.40;;
6679;SDS011;3376;42.664;23.346;2024-01-15T05:14:06;40.95;;;28.02;;
6679;SDS011;3376;42.664;23.346;2024-01-15T05:16:33;45.72;;;29.30;;
6679;SDS011;3376;42.664;23.346;2024-01-15T05:19:00;46.50;;;30.15;;
6679;SDS011;3376;42.664;23.346;2024-01-15T05:21:27;50.97;;;30.67;;
6679;SDS011;3376;42.664;23.346;2024-01-15T05:23:54;42.65;;;29.85;;
6679;SDS011;3376;42.664;23.346;2024-01-15T05:26:21;44.80;;;30.77;;
6679;SDS011;3376;42.664;23.346;2024-01-15T05:28:48;48.88;;;32.25;;
6679;SDS011;3376;42.664;23.346;2024-01-15T05:31:16;44.78;;;30.65;;
6679;SDS011;3376;42.664;23.346;2024-01-15T05:33:43;48.85;;;29.67;;
6679;SDS011;3376;42.664;23.346;2024-01-15T05:36:10;47.72;;;31.63;;
6679;SDS011;3376;42.664;23.346;2024-01-15T05:38:37;46.47;;;31.05;;
6679;SDS011;3376;42.664;23.346;2024-01-15T05:41:05;49.78;;;32.55;;
6679;SDS011;3376;42.664;23.346;2024-01-15T05:43:32;55.38;;;34.72;;
6679;SDS011;3376;42.664;23.346;2024-01-15T05:45:59;48.80;;;33.63;;
6679;SDS011;3376;42.664;23.346;2024-01-15T05:48:27;53.10;;;34.22;;
6679;SDS011;3376;42.664;23.346;2024-01-15T05:50:54;53.35;;;33.80;;
6679;SDS011;3376;42.664;23.346;2024-01-15T05:53:21;52.47;;;34.33;;
6679;SDS011;3376;42.664;23.346;2024-01-15T05:55:48;52.15;;;34.85;;
6679;SDS011;3376;42.664;23.346;2024-01-15T05:58:15;59.70;;;37.03;;
6679;SDS011;3376;42.664;23.346;2024-01-15T06:00:42;57.28;;;36.97;;
6679;SDS011;3376;42.664;23.346;2024-01-15T06:03:10;49.33;;;33.90;;
6679;SDS011;3376;42.664;23.346;2024-01-15T06:05:39;58.47;;;36.58;;
6679;SDS011;3376;42.664;23.346;2024-01-15T06:08:06;55.72;;;36.05;;
6679;SDS011;3376;42.664;23.346;2024-01-15T06:10:33;61.30;;;40.92;;
6679;SDS011;3376;42.664;23.346;2024-01-15T06:12:59;55.13;;;38.28;;
6679;SDS011;3376;42.664;23.346;2024-01-15T06:15:27;64.10;;;41.05;;
6679;SDS011;3376;42.664;23.346;2024-01-15T06:17:54;66.30;;;40.25;;
6679;SDS011;3376;42.664;23.346;2024-01-15T06:20:20;77.80;;;46.53;;
6679;SDS011;3376;42.664;23.346;2024-01-15T06:22:49;73.05;;;42.72;;
6679;SDS011;3376;42.664;23.346;2024-01-15T06:25:16;63.47;;;40.35;;
6679;SDS011;3376;42.664;23.346;2024-01-15T06:27:43;61.15;;;39.88;;
6679;SDS011;3376;42.664;23.346;2024-01-15T06:30:10;59.25;;;40.03;;
6679;SDS011;3376;42.664;23.346;2024-01-15T06:32:38;64.40;;;40.08;;
6679;SDS011;3376;42.664;23.346;2024-01-15T06:35:05;58.72;;;36.30;;
6679;SDS011;3376;42.664;23.346;2024-01-15T06:37:33;71.32;;;42.83;;
6679;SDS011;3376;42.664;23.346;2024-01-15T06:40:01;75.10;;;45.25;;
6679;SDS011;3376;42.664;23.346;2024-01-15T06:42:30;71.47;;;42.85;;
6679;SDS011;3376;42.664;23.346;2024-01-15T06:44:57;80.80;;;45.67;;
6679;SDS011;3376;42.664;23.346;2024-01-15T06:47:24;70.78;;;42.80;;
6679;SDS011;3376;42.664;23.346;2024-01-15T06:49:51;75.60;;;45.67;;
6679;SDS011;3376;42.664;23.346;2024-01-15T06:52:18;92.60;;;50.90;;
6679;SDS011;3376;42.664;23.346;2024-01-15T06:54:45;90.13;;;46.97;;
6679;SDS011;3376;42.664;23.346;2024-01-15T06:57:14;108.47;;;50.47;;
6679;SDS011;3376;42.664;23.346;2024-01-15T06:59:41;105.20;;;55.70;;
6679;SDS011;3376;42.664;23.346;2024-01-15T07:02:08;93.83;;;46.83;;
6679;SDS011;3376;42.664;23.346;2024-01-15T07:04:35;89.20;;;51.70;;
6679;SDS011;3376;42.664;23.346;2024-01-15T07:07:02;92.13;;;54.10;;
6679;SDS011;3376;42.664;23.346;2024-01-15T07:09:29;91.88;;;52.20;;
6679;SDS011;3376;42.664;23.346;2024-01-15T07:11:56;99.90;;;54.63;;
6679;SDS011;3376;42.664;23.346;2024-01-15T07:14:24;87.53;;;50.50;;
6679;SDS011;3376;42.664;23.346;2024-01-15T07:16:51;89.97;;;52.33;;
6679;SDS011;3376;42.664;23.346;2024-01-15T07:19:18;99.03;;;52.38;;
6679;SDS011;3376;42.664;23.346;2024-01-15T07:21:45;92.78;;;54.53;;
6679;SDS011;3376;42.664;23.346;2024-01-15T07:24:12;84.63;;;47.95;;
6679;SDS011;3376;42.664;23.346;2024-01-15T07:26:39;82.95;;;49.90;;
6679;SDS011;3376;42.664;23.346;2024-01-15T07:29:06;97.80;;;55.25;;
6679;SDS011;3376;42.664;23.346;2024-01-15T07:31:35;95.50;;;56.28;;
6679;SDS011;3376;42.664;23.346;2024-01-15T07:34:02;96.72;;;58.15;;
6679;SDS011;3376;42.664;23.346;2024-01-15T07:36:29;100.97;;;57.53;;
6679;SDS011;3376;42.664;23.346;2024-01-15T07:38:56;99.88;;;56.92;;
6679;SDS011;3376;42.664;23.346;2024-01-15T07:41:23;97.00;;;57.55;;
6679;SDS011;3376;42.664;23.346;2024-01-15T07:43:50;96.75;;;55.50;;
6679;SDS011;3376;42.664;23.346;2024-01-15T07:46:17;94.10;;;57.13;;
6679;SDS011;3376;42.664;23.346;2024-01-15T07:48:45;85.03;;;52.65;;
6679;SDS011;3376;42.664;23.346;2024-01-15T07:51:12;88.85;;;56.30;;
6679;SDS011;3376;42.664;23.346;2024-01-15T07:53:40;102.07;;;57.75;;
6679;SDS011;3376;42.664;23.346;2024-01-15T07:56:07;84.35;;;47.58;;
6679;SDS011;3376;42.664;23.346;2024-01-15T07:58:33;67.20;;;41.10;;
6679;SDS011;3376;42.664;23.346;2024-01-15T08:01:00;76.53;;;40.10;;
6679;SDS011;3376;42.664;23.346;2024-01-15T08:03:27;63.63;;;42.70;;
6679;SDS011;3376;42.664;23.346;2024-01-15T08:05:56;61.15;;;38.35;;
6679;SDS011;3376;42.664;23.346;2024-01-15T08:08:24;63.43;;;37.70;;
6679;SDS011;3376;42.664;23.346;2024-01-15T08:10:51;61.00;;;31.47;;
6679;SDS011;3376;42.664;23.346;2024-01-15T08:13:19;54.27;;;34.37;;
6679;SDS011;3376;42.664;23.346;2024-01-15T08:15:46;52.20;;;34.67;;
6679;SDS011;3376;42.664;23.346;2024-01-15T08:18:13;55.83;;;36.00;;
6679;SDS011;3376;42.664;23.346;2024-01-15T08:20:40;53.53;;;37.50;;
6679;SDS011;3376;42.664;23.346;2024-01-15T08:23:09;52.47;;;32.27;;
6679;SDS011;3376;42.664;23.346;2024-01-15T08:25:36;67.40;;;40.30;;
6679;SDS011;3376;42.664;23.346;2024-01-15T08:28:03;45.97;;;30.00;;
6679;SDS011;3376;42.664;23.346;2024-01-15T08:30:30;57.70;;;33.13;;
6679;SDS011;3376;42.664;23.346;2024-01-15T08:32:57;57.80;;;33.13;;
6679;SDS011;3376;42.664;23.346;2024-01-15T08:35:24;55.80;;;34.03;;
6679;SDS011;3376;42.664;23.346;2024-01-15T08:37:51;53.70;;;32.43;;
6679;SDS011;3376;42.664;23.346;2024-01-15T08:40:20;69.33;;;38.03;;
6679;SDS011;3376;42.664;23.346;2024-01-15T08:42:47;56.90;;;35.10;;
6679;SDS011;3376;42.664;23.346;2024-01-15T08:45:15;53.57;;;32.03;;
6679;SDS011;3376;42.664;23.346;2024-01-15T08:47:42;53.03;;;31.60;;
6679;SDS011;3376;42.664;23.346;2024-01-15T08:50:09;51.97;;;32.27;;
6679;SDS011;3376;42.664;23.346;2024-01-15T08:52:36;66.33;;;36.27;;
6679;SDS011;3376;42.664;23.346;2024-01-15T08:55:03;53.23;;;32.53;;
6679;SDS011;3376;42.664;23.346;2024-01-15T08:57:33;48.33;;;31.87;;
6679;SDS011;3376;42.664;23.346;2024-01-15T09:00:00;41.07;;;28.27;;
6679;SDS011;3376;42.664;23.346;2024-01-15T09:02:28;47.60;;;30.90;;
6679;SDS011;3376;42.664;23.346;2024-01-15T09:04:55;55.13;;;33.47;;
6679;SDS011;3376;42.664;23.346;2024-01-15T09:07:22;49.47;;;30.93;;
6679;SDS011;3376;42.664;23.346;2024-01-15T09:09:51;80.70;;;43.90;;
6679;SDS011;3376;42.664;23.346;2024-01-15T09:12:18;66.60;;;39.90;;
6679;SDS011;3376;42.664;23.346;2024-01-15T09:14:48;69.90;;;37.07;;
6679;SDS011;3376;42.664;23.346;2024-01-15T09:17:15;56.60;;;33.63;;
6679;SDS011;3376;42.664;23.346;2024-01-15T09:19:42;58.30;;;34.30;;
6679;SDS011;3376;42.664;23.346;2024-01-15T09:22:09;54.80;;;32.73;;
6679;SDS011;3376;42.664;23.346;2024-01-15T09:24:36;46.43;;;30.17;;
6679;SDS011;3376;42.664;23.346;2024-01-15T09:27:03;54.30;;;31.47;;
6679;SDS011;3376;42.664;23.346;2024-01-15T09:29:30;49.87;;;31.37;;
6679;SDS011;3376;42.664;23.346;2024-01-15T09:31:59;59.27;;;31.93;;
6679;SDS011;3376;42.664;23.346;2024-01-15T09:34:28;59.73;;;29.83;;
6679;SDS011;3376;42.664;23.346;2024-01-15T09:36:55;56.63;;;28.87;;
6679;SDS011;3376;42.664;23.346;2024-01-15T09:39:22;56.60;;;30.70;;
6679;SDS011;3376;42.664;23.346;2024-01-15T09:41:49;51.53;;;30.13;;
6679;SDS011;3376;42.664;23.346;2024-01-15T09:44:16;62.93;;;34.20;;
6679;SDS011;3376;42.664;23.346;2024-01-15T09:46:43;73.07;;;39.67;;
6679;SDS011;3376;42.664;23.346;2024-01-15T09:49:13;74.53;;;42.80;;
6679;SDS011;3376;42.664;23.346;2024-01-15T09:51:40;83.33;;;44.43;;
6679;SDS011;3376;42.664;23.346;2024-01-15T09:54:08;84.43;;;46.90;;
6679;SDS011;3376;42.664;23.346;2024-01-15T09:56:35;84.83;;;48.80;;
6679;SDS011;3376;42.664;23.346;2024-01-15T09:59:02;92.10;;;48.70;;
6679;SDS011;3376;42.664;23.346;2024-01-15T10:01:31;75.00;;;45.77;;
6679;SDS011;3376;42.664;23.346;2024-01-15T10:03:58;65.37;;;40.60;;
6679;SDS011;3376;42.664;23.346;2024-01-15T10:06:27;76.20;;;39.47;;
6679;SDS011;3376;42.664;23.346;2024-01-15T10:08:54;66.00;;;36.27;;
6679;SDS011;3376;42.664;23.346;2024-01-15T10:11:23;65.43;;;36.17;;
6679;SDS011;3376;42.664;23.346;2024-01-15T10:13:50;84.50;;;44.20;;
6679;SDS011;3376;42.664;23.346;2024-01-15T10:16:18;90.53;;;47.87;;
6679;SDS011;3376;42.664;23.346;2024-01-15T10:18:45;82.53;;;46.97;;
6679;SDS011;3376;42.664;23.346;2024-01-15T10:21:12;81.77;;;49.70;;
6679;SDS011;3376;42.664;23.346;2024-01-15T10:23:42;94.43;;;48.37;;
6679;SDS011;3376;42.664;23.346;2024-01-15T10:26:09;88.93;;;49.03;;
6679;SDS011;3376;42.664;23.346;2024-01-15T10:28:37;96.03;;;51.77;;
6679;SDS011;3376;42.664;23.346;2024-01-15T10:31:04;87.60;;;51.47;;
6679;SDS011;3376;42.664;23.346;2024-01-15T10:33:31;99.27;;;53.03;;
6679;SDS011;3376;42.664;23.346;2024-01-15T10:35:59;84.43;;;47.50;;
6679;SDS011;3376;42.664;23.346;2024-01-15T10:38:27;84.43;;;46.17;;
6679;SDS011;3376;42.664;23.346;2024-01-15T10:40:55;90.90;;;47.53;;
6679;SDS011;3376;42.664;23.346;2024-01-15T10:43:23;82.07;;;46.53;;
6679;SDS011;3376;42.664;23.346;2024-01-15T10:45:50;84.87;;;47.70;;
6679;SDS011;3376;42.664;23.346;2024-01-15T10:48:18;67.27;;;41.57;;
6679;SDS011;3376;42.664;23.346;2024-01-15T10:50:45;66.07;;;39.07;;
6679;SDS011;3376;42.664;23.346;2024-01-15T10:53:14;76.57;;;39.47;;
6679;SDS011;3376;42.664;23.346;2024-01-15T10:55:42;71.67;;;41.67;;
6679;SDS011;3376;42.664;23.346;2024-01-15T10:58:12;65.20;;;38.53;;
6679;SDS011;3376;42.664;23.346;2024-01-15T11:00:41;65.43;;;37.73;;
6679;SDS011;3376;42.664;23.346;2024-01-15T11:03:09;64.13;;;35.67;;
6679;SDS011;3376;42.664;23.346;2024-01-15T11:05:37;60.70;;;37.30;;
6679;SDS011;3376;42.664;23.346;2024-01-15T11:08:05;65.83;;;38.00;;
6679;SDS011;3376;42.664;23.346;2024-01-15T11:10:39;68.53;;;35.83;;
6679;SDS011;3376;42.664;23.346;2024-01-15T11:13:19;60.43;;;35.37;;
6679;SDS011;3376;42.664;23.346;2024-01-15T11:15:59;59.83;;;36.70;;
6679;SDS011;3376;42.664;23.346;2024-01-15T11:18:28;66.03;;;36.73;;
6679;SDS011;3376;42.664;23.346;2024-01-15T11:23:47;50.07;;;34.27;;
6679;SDS011;3376;42.664;23.346;2024-01-15T11:26:28;58.70;;;34.67;;
6679;SDS011;3376;42.664;23.346;2024-01-15T11:28:58;61.90;;;36.00;;
6679;SDS011;3376;42.664;23.346;2024-01-15T11:31:26;43.87;;;31.67;;
6679;SDS011;3376;42.664;23.346;2024-01-15T11:33:54;47.67;;;31.83;;
6679;SDS011;3376;42.664;23.346;2024-01-15T11:36:21;40.40;;;29.07;;
6679;SDS011;3376;42.664;23.346;2024-01-15T11:42:12;42.13;;;27.70;;
6679;SDS011;3376;42.664;23.346;2024-01-15T11:44:39;46.47;;;29.80;;
6679;SDS011;3376;42.664;23.346;2024-01-15T11:47:07;29.83;;;23.77;;
6679;SDS011;3376;42.664;23.346;2024-01-15T11:49:45;36.97;;;24.70;;
6679;SDS011;3376;42.664;23.346;2024-01-15T11:52:31;32.23;;;23.13;;
6679;SDS011;3376;42.664;23.346;2024-01-15T11:55:04;31.50;;;23.10;;
6679;SDS011;3376;42.664;23.346;2024-01-15T11:57:41;31.00;;;21.63;;
6679;SDS011;3376;42.664;23.346;2024-01-15T12:00:12;23.77;;;19.27;;
6679;SDS011;3376;42.664;23.346;2024-01-15T12:02:40;24.87;;;20.53;;
6679;SDS011;3376;42.664;23.346;2024-01-15T12:05:07;33.80;;;21.43;;
6679;SDS011;3376;42.664;23.346;2024-01-15T12:07:35;39.10;;;21.97;;
6679;SDS011;3376;42.664;23.346;2024-01-15T12:10:03;37.93;;;21.00;;
6679;SDS011;3376;42.664;23.346;2024-01-15T12:12:37;48.47;;;22.47;;
6679;SDS011;3376;42.664;23.346;2024-01-15T12:15:11;31.27;;;21.50;;
6679;SDS011;3376;42.664;23.346;2024-01-15T12:17:38;30.43;;;21.93;;
6679;SDS011;3376;42.664;23.346;2024-01-15T12:20:06;31.73;;;21.47;;
6679;SDS011;3376;42.664;23.346;2024-01-15T12:22:33;32.27;;;21.93;;
6679;SDS011;3376;42.664;23.346;2024-01-15T12:25:00;33.93;;;21.60;;
6679;SDS011;3376;42.664;23.346;2024-01-15T12:27:28;33.30;;;21.27;;
6679;SDS011;3376;42.664;23.346;2024-01-15T12:29:57;27.63;;;20.27;;
6679;SDS011;3376;42.664;23.346;2024-01-15T12:32:24;28.43;;;20.63;;
6679;SDS011;3376;42.664;23.346;2024-01-15T12:34:51;31.13;;;19.50;;
6679;SDS011;3376;42.664;23.346;2024-01-15T12:37:18;30.70;;;19.90;;
6679;SDS011;3376;42.664;23.346;2024-01-15T12:39:45;28.47;;;20.13;;
6679;SDS011;3376;42.664;23.346;2024-01-15T12:42:14;30.13;;;20.30;;
6679;SDS011;3376;42.664;23.346;2024-01-15T12:44:43;30.33;;;19.70;;
6679;SDS011;3376;42.664;23.346;2024-01-15T12:47:11;28.17;;;19.20;;
6679;SDS011;3376;42.664;23.346;2024-01-15T12:49:39;26.80;;;19.70;;
6679;SDS011;3376;42.664;23.346;2024-01-15T12:52:08;28.07;;;19.57;;
6679;SDS011;3376;42.664;23.346;2024-01-15T12:54:35;30.43;;;19.43;;
6679;SDS011;3376;42.664;23.346;2024-01-15T12:57:02;25.80;;;20.37;;
6679;SDS011;3376;42.664;23.346;2024-01-15T12:59:30;32.77;;;20.30;;
6679;SDS011;3376;42.664;23.346;2024-01-15T13:01:58;29.27;;;20.30;;
6679;SDS011;3376;42.664;23.346;2024-01-15T13:04:25;26.87;;;19.30;;
6679;SDS011;3376;42.664;23.346;2024-01-15T13:06:52;27.57;;;18.23;;
6679;SDS011;3376;42.664;23.346;2024-01-15T13:09:19;37.90;;;20.17;;
6679;SDS011;3376;42.664;23.346;2024-01-15T13:11:46;29.40;;;19.67;;
6679;SDS011;3376;42.664;23.346;2024-01-15T13:14:13;29.57;;;19.70;;
6679;SDS011;3376;42.664;23.346;2024-01-15T13:16:41;26.17;;;19.63;;
6679;SDS011;3376;42.664;23.346;2024-01-15T13:19:09;31.73;;;19.90;;
6679;SDS011;3376;42.664;23.346;2024-01-15T13:21:38;28.10;;;19.73;;
6679;SDS011;3376;42.664;23.346;2024-01-15T13:24:05;34.50;;;19.50;;
6679;SDS011;3376;42.664;23.346;2024-01-15T13:26:32;30.80;;;20.97;;
6679;SDS011;3376;42.664;23.346;2024-01-15T13:29:00;31.80;;;20.33;;
6679;SDS011;3376;42.664;23.346;2024-01-15T13:31:28;26.63;;;19.70;;
6679;SDS011;3376;42.664;23.346;2024-01-15T13:33:55;44.30;;;20.23;;
6679;SDS011;3376;42.664;23.346;2024-01-15T13:36:24;31.53;;;19.73;;
6679;SDS011;3376;42.664;23.346;2024-01-15T13:38:51;31.60;;;19.50;;
6679;SDS011;3376;42.664;23.346;2024-01-15T13:41:19;36.10;;;19.77;;
6679;SDS011;3376;42.664;23.346;2024-01-15T13:43:48;25.23;;;19.20;;
6679;SDS011;3376;42.664;23.346;2024-01-15T13:46:16;28.67;;;20.03;;
6679;SDS011;3376;42.664;23.346;2024-01-15T13:48:43;37.80;;;21.60;;
6679;SDS011;3376;42.664;23.346;2024-01-15T13:51:10;33.03;;;19.97;;
6679;SDS011;3376;42.664;23.346;2024-01-15T13:53:38;34.37;;;20.10;;
6679;SDS011;3376;42.664;23.346;2024-01-15T13:56:05;34.70;;;20.57;;
6679;SDS011;3376;42.664;23.346;2024-01-15T13:58:33;37.50;;;20.97;;
6679;SDS011;3376;42.664;23.346;2024-01-15T14:01:02;34.53;;;21.30;;
6679;SDS011;3376;42.664;23.346;2024-01-15T14:03:31;29.23;;;21.17;;
6679;SDS011;3376;42.664;23.346;2024-01-15T14:05:59;35.07;;;21.40;;
6679;SDS011;3376;42.664;23.346;2024-01-15T14:08:28;38.20;;;20.80;;
6679;SDS011;3376;42.664;23.346;2024-01-15T14:10:56;26.67;;;20.17;;
6679;SDS011;3376;42.664;23.346;2024-01-15T14:13:23;31.87;;;22.37;;
6679;SDS011;3376;42.664;23.346;2024-01-15T14:15:50;36.40;;;21.53;;
6679;SDS011;3376;42.664;23.346;2024-01-15T14:18:17;43.53;;;21.93;;
6679;SDS011;3376;42.664;23.346;2024-01-15T14:20:44;32.07;;;22.17;;
6679;SDS011;3376;42.664;23.346;2024-01-15T14:23:11;36.63;;;21.77;;
6679;SDS011;3376;42.664;23.346;2024-01-15T14:25:39;30.10;;;21.80;;
6679;SDS011;3376;42.664;23.346;2024-01-15T14:28:08;37.07;;;20.97;;
6679;SDS011;3376;42.664;23.346;2024-01-15T14:30:35;36.67;;;22.27;;
6679;SDS011;3376;42.664;23.346;2024-01-15T14:33:02;37.67;;;23.43;;
6679;SDS011;3376;42.664;23.346;2024-01-15T14:35:30;32.83;;;22.40;;
6679;SDS011;3376;42.664;23.346;2024-01-15T14:37:57;34.03;;;22.23;;
6679;SDS011;3376;42.664;23.346;2024-01-15T14:40:24;31.00;;;21.43;;
6679;SDS011;3376;42.664;23.346;2024-01-15T14:42:51;38.57;;;21.80;;